sensor_id;sensor_type;location;lat;lon;timestamp;P1;durP1;ratioP1;P2;durP2;ratioP2
4873;SDS011;2451;49.970;9.068;2023-01-23T00:01:09;11.52;;;7.30;;
4873;SDS011;2451;49.970;9.068;2023-01-23T00:03:36;11.93;;;7.40;;
4873;SDS011;2451;49.970;9.068;2023-01-23T00:06:06;11.38;;;6.68;;
4873;SDS011;2451;49.970;9.068;2023-01-23T00:08:36;11.43;;;6.88;;
4873;SDS011;2451;49.970;9.068;2023-01-23T00:11:04;9.73;;;6.35;;
4873;SDS011;2451;49.970;9.068;2023-01-23T00:13:31;11.85;;;6.88;;
4873;SDS011;2451;49.970;9.068;2023-01-23T00:15:56;10.38;;;6.68;;
4873;SDS011;2451;49.970;9.068;2023-01-23T00:18:22;10.68;;;6.72;;
4873;SDS011;2451;49.970;9.068;2023-01-23T00:20:47;12.98;;;7.03;;
4873;SDS011;2451;49.970;9.068;2023-01-23T00:23:13;13.82;;;7.38;;
4873;SDS011;2451;49.970;9.068;2023-01-23T00:25:38;11.93;;;6.75;;
4873;SDS011;2451;49.970;9.068;2023-01-23T00:28:04;12.88;;;7.65;;
4873;SDS011;2451;49.970;9.068;2023-01-23T00:30:30;13.23;;;8.07;;
4873;SDS011;2451;49.970;9.068;2023-01-23T00:32:56;16.35;;;9.82;;
4873;SDS011;2451;49.970;9.068;2023-01-23T00:35:22;14.88;;;8.63;;
4873;SDS011;2451;49.970;9.068;2023-01-23T00:37:47;14.50;;;8.55;;
4873;SDS011;2451;49.970;9.068;2023-01-23T00:40:13;16.00;;;8.93;;
4873;SDS011;2451;49.970;9.068;2023-01-23T00:42:38;13.55;;;8.32;;
4873;SDS011;2451;49.970;9.068;2023-01-23T00:45:04;14.63;;;9.00;;
4873;SDS011;2451;49.970;9.068;2023-01-23T00:47:30;16.33;;;8.98;;
4873;SDS011;2451;49.970;9.068;2023-01-23T00:49:56;16.05;;;8.88;;
4873;SDS011;2451;49.970;9.068;2023-01-23T00:52:23;15.68;;;9.00;;
4873;SDS011;2451;49.970;9.068;2023-01-23T00:54:49;13.15;;;7.75;;
4873;SDS011;2451;49.970;9.068;2023-01-23T00:57:15;15.52;;;8.90;;
4873;SDS011;2451;49.970;9.068;2023-01-23T00:59:40;15.40;;;9.32;;
4873;SDS011;2451;49.970;9.068;2023-01-23T01:02:06;14.23;;;8.52;;
4873;SDS011;2451;49.970;9.068;2023-01-23T01:04:31;14.60;;;8.05;;
4873;SDS011;2451;49.970;9.068;2023-01-23T01:06:57;15.43;;;8.93;;
4873;SDS011;2451;49.970;9.068;2023-01-23T01:09:23;14.57;;;8.18;;
4873;SDS011;2451;49.970;9.068;2023-01-23T01:11:48;14.15;;;8.18;;
4873;SDS011;2451;49.970;9.068;2023-01-23T01:14:14;14.75;;;8.20;;
4873;SDS011;2451;49.970;9.068;2023-01-23T01:16:40;17.90;;;8.65;;
4873;SDS011;2451;49.970;9.068;2023-01-23T01:19:09;14.40;;;7.70;;
4873;SDS011;2451;49.970;9.068;2023-01-23T01:21:36;14.10;;;8.20;;
4873;SDS011;2451;49.970;9.068;2023-01-23T01:24:03;15.02;;;8.15;;
4873;SDS011;2451;49.970;9.068;2023-01-23T01:26:29;13.45;;;7.35;;
4873;SDS011;2451;49.970;9.068;2023-01-23T01:28:54;13.55;;;8.07;;
4873;SDS011;2451;49.970;9.068;2023-01-23T01:31:20;13.90;;;8.15;;
4873;SDS011;2451;49.970;9.068;2023-01-23T01:33:45;13.60;;;7.63;;
4873;SDS011;2451;49.970;9.068;2023-01-23T01:36:13;14.48;;;8.02;;
4873;SDS011;2451;49.970;9.068;2023-01-23T01:38:40;14.10;;;8.75;;
4873;SDS011;2451;49.970;9.068;2023-01-23T01:41:06;13.82;;;8.52;;
4873;SDS011;2451;49.970;9.068;2023-01-23T01:43:33;15.32;;;8.55;;
4873;SDS011;2451;49.970;9.068;2023-01-23T01:46:03;14.35;;;8.65;;
4873;SDS011;2451;49.970;9.068;2023-01-23T01:51:39;13.82;;;8.50;;
4873;SDS011;2451;49.970;9.068;2023-01-23T01:54:20;14.32;;;8.55;;
4873;SDS011;2451;49.970;9.068;2023-01-23T01:57:09;14.15;;;8.60;;
4873;SDS011;2451;49.970;9.068;2023-01-23T01:59:34;17.25;;;8.93;;
4873;SDS011;2451;49.970;9.068;2023-01-23T02:02:18;16.15;;;8.88;;
4873;SDS011;2451;49.970;9.068;2023-01-23T02:04:52;13.73;;;7.88;;
4873;SDS011;2451;49.970;9.068;2023-01-23T02:10:04;15.32;;;8.50;;
4873;SDS011;2451;49.970;9.068;2023-01-23T02:12:30;15.57;;;9.10;;
4873;SDS011;2451;49.970;9.068;2023-01-23T02:14:58;14.88;;;8.65;;
4873;SDS011;2451;49.970;9.068;2023-01-23T02:17:25;16.08;;;9.10;;
4873;SDS011;2451;49.970;9.068;2023-01-23T02:19:54;16.48;;;9.00;;
4873;SDS011;2451;49.970;9.068;2023-01-23T02:25:27;16.10;;;9.20;;
4873;SDS011;2451;49.970;9.068;2023-01-23T02:28:02;17.38;;;9.90;;
4873;SDS011;2451;49.970;9.068;2023-01-23T02:30:28;16.83;;;9.68;;
4873;SDS011;2451;49.970;9.068;2023-01-23T02:32:54;19.48;;;10.00;;
4873;SDS011;2451;49.970;9.068;2023-01-23T02:35:31;16.73;;;9.60;;
4873;SDS011;2451;49.970;9.068;2023-01-23T02:37:57;15.60;;;9.07;;
4873;SDS011;2451;49.970;9.068;2023-01-23T02:40:33;18.50;;;10.45;;
4873;SDS011;2451;49.970;9.068;2023-01-23T02:43:01;17.23;;;9.93;;
4873;SDS011;2451;49.970;9.068;2023-01-23T02:45:28;16.55;;;9.27;;
4873;SDS011;2451;49.970;9.068;2023-01-23T02:47:55;17.58;;;9.93;;
4873;SDS011;2451;49.970;9.068;2023-01-23T02:50:21;19.17;;;9.80;;
4873;SDS011;2451;49.970;9.068;2023-01-23T02:52:47;18.42;;;9.55;;
4873;SDS011;2451;49.970;9.068;2023-01-23T02:55:14;18.48;;;9.82;;
4873;SDS011;2451;49.970;9.068;2023-01-23T02:57:43;16.83;;;9.60;;
4873;SDS011;2451;49.970;9.068;2023-01-23T03:00:09;17.52;;;9.48;;
4873;SDS011;2451;49.970;9.068;2023-01-23T03:02:47;18.23;;;9.35;;
4873;SDS011;2451;49.970;9.068;2023-01-23T03:05:15;17.42;;;9.88;;
4873;SDS011;2451;49.970;9.068;2023-01-23T03:07:41;16.45;;;9.35;;
4873;SDS011;2451;49.970;9.068;2023-01-23T03:10:07;17.50;;;9.20;;
4873;SDS011;2451;49.970;9.068;2023-01-23T03:12:33;16.55;;;8.98;;
4873;SDS011;2451;49.970;9.068;2023-01-23T03:14:59;18.02;;;9.48;;
4873;SDS011;2451;49.970;9.068;2023-01-23T03:17:25;18.40;;;9.50;;
4873;SDS011;2451;49.970;9.068;2023-01-23T03:19:52;17.98;;;9.73;;
4873;SDS011;2451;49.970;9.068;2023-01-23T03:22:19;20.83;;;9.10;;
4873;SDS011;2451;49.970;9.068;2023-01-23T03:24:45;17.00;;;9.20;;
4873;SDS011;2451;49.970;9.068;2023-01-23T03:27:11;16.52;;;9.52;;
4873;SDS011;2451;49.970;9.068;2023-01-23T03:29:36;18.15;;;9.60;;
4873;SDS011;2451;49.970;9.068;2023-01-23T03:32:20;16.92;;;9.77;;
4873;SDS011;2451;49.970;9.068;2023-01-23T03:34:46;16.55;;;9.82;;
4873;SDS011;2451;49.970;9.068;2023-01-23T03:37:12;17.08;;;9.02;;
4873;SDS011;2451;49.970;9.068;2023-01-23T03:39:39;17.63;;;9.30;;
4873;SDS011;2451;49.970;9.068;2023-01-23T03:42:23;17.13;;;8.65;;
4873;SDS011;2451;49.970;9.068;2023-01-23T03:44:50;17.90;;;10.07;;
4873;SDS011;2451;49.970;9.068;2023-01-23T03:47:16;16.88;;;9.52;;
4873;SDS011;2451;49.970;9.068;2023-01-23T03:49:42;18.20;;;10.13;;
4873;SDS011;2451;49.970;9.068;2023-01-23T03:52:07;16.33;;;9.68;;
4873;SDS011;2451;49.970;9.068;2023-01-23T03:54:33;17.33;;;9.18;;
4873;SDS011;2451;49.970;9.068;2023-01-23T03:56:58;18.85;;;9.40;;
4873;SDS011;2451;49.970;9.068;2023-01-23T03:59:24;17.17;;;8.98;;
4873;SDS011;2451;49.970;9.068;2023-01-23T04:01:49;18.25;;;9.57;;
4873;SDS011;2451;49.970;9.068;2023-01-23T04:04:15;18.13;;;9.25;;
4873;SDS011;2451;49.970;9.068;2023-01-23T04:06:40;17.30;;;9.38;;
4873;SDS011;2451;49.970;9.068;2023-01-23T04:09:06;17.98;;;9.50;;
4873;SDS011;2451;49.970;9.068;2023-01-23T04:11:31;17.52;;;9.10;;
4873;SDS011;2451;49.970;9.068;2023-01-23T04:13:58;16.10;;;8.80;;
4873;SDS011;2451;49.970;9.068;2023-01-23T04:16:23;16.50;;;8.98;;
4873;SDS011;2451;49.970;9.068;2023-01-23T04:18:49;15.02;;;8.40;;
4873;SDS011;2451;49.970;9.068;2023-01-23T04:21:16;14.07;;;8.15;;
4873;SDS011;2451;49.970;9.068;2023-01-23T04:23:42;16.88;;;9.40;;
4873;SDS011;2451;49.970;9.068;2023-01-23T04:26:07;15.38;;;8.68;;
4873;SDS011;2451;49.970;9.068;2023-01-23T04:28:33;17.00;;;9.45;;
4873;SDS011;2451;49.970;9.068;2023-01-23T04:30:58;16.08;;;8.95;;
4873;SDS011;2451;49.970;9.068;2023-01-23T04:33:24;16.50;;;9.38;;
4873;SDS011;2451;49.970;9.068;2023-01-23T04:35:53;14.90;;;8.95;;
4873;SDS011;2451;49.970;9.068;2023-01-23T04:38:24;14.25;;;8.63;;
4873;SDS011;2451;49.970;9.068;2023-01-23T04:40:51;15.77;;;9.57;;
4873;SDS011;2451;49.970;9.068;2023-01-23T04:43:17;15.48;;;8.88;;
4873;SDS011;2451;49.970;9.068;2023-01-23T04:45:42;18.33;;;9.48;;
4873;SDS011;2451;49.970;9.068;2023-01-23T04:48:09;17.63;;;9.63;;
4873;SDS011;2451;49.970;9.068;2023-01-23T04:50:37;16.83;;;9.43;;
4873;SDS011;2451;49.970;9.068;2023-01-23T04:53:03;16.25;;;9.40;;
4873;SDS011;2451;49.970;9.068;2023-01-23T04:55:30;16.55;;;8.85;;
4873;SDS011;2451;49.970;9.068;2023-01-23T04:57:55;13.80;;;8.30;;
4873;SDS011;2451;49.970;9.068;2023-01-23T05:00:21;14.60;;;8.10;;
4873;SDS011;2451;49.970;9.068;2023-01-23T05:02:47;15.95;;;9.35;;
4873;SDS011;2451;49.970;9.068;2023-01-23T05:05:14;14.50;;;8.15;;
4873;SDS011;2451;49.970;9.068;2023-01-23T05:07:41;14.02;;;8.32;;
4873;SDS011;2451;49.970;9.068;2023-01-23T05:10:08;14.60;;;8.52;;
4873;SDS011;2451;49.970;9.068;2023-01-23T05:12:34;15.15;;;8.35;;
4873;SDS011;2451;49.970;9.068;2023-01-23T05:15:00;16.55;;;8.45;;
4873;SDS011;2451;49.970;9.068;2023-01-23T05:17:26;14.77;;;8.82;;
4873;SDS011;2451;49.970;9.068;2023-01-23T05:19:51;15.13;;;7.88;;
4873;SDS011;2451;49.970;9.068;2023-01-23T05:22:17;14.63;;;8.45;;
4873;SDS011;2451;49.970;9.068;2023-01-23T05:24:43;14.18;;;8.27;;
4873;SDS011;2451;49.970;9.068;2023-01-23T05:27:09;15.45;;;9.25;;
4873;SDS011;2451;49.970;9.068;2023-01-23T05:29:36;16.40;;;9.07;;
4873;SDS011;2451;49.970;9.068;2023-01-23T05:32:01;15.38;;;9.50;;
4873;SDS011;2451;49.970;9.068;2023-01-23T05:34:27;17.42;;;9.77;;
4873;SDS011;2451;49.970;9.068;2023-01-23T05:36:52;18.40;;;11.30;;
4873;SDS011;2451;49.970;9.068;2023-01-23T05:39:18;19.13;;;11.18;;
4873;SDS011;2451;49.970;9.068;2023-01-23T05:41:44;18.67;;;11.05;;
4873;SDS011;2451;49.970;9.068;2023-01-23T05:44:09;20.50;;;12.20;;
4873;SDS011;2451;49.970;9.068;2023-01-23T05:46:35;17.40;;;11.65;;
4873;SDS011;2451;49.970;9.068;2023-01-23T05:49:00;19.65;;;12.07;;
4873;SDS011;2451;49.970;9.068;2023-01-23T05:51:26;20.02;;;12.55;;
4873;SDS011;2451;49.970;9.068;2023-01-23T05:53:56;18.15;;;11.75;;
4873;SDS011;2451;49.970;9.068;2023-01-23T05:56:22;14.68;;;9.00;;
4873;SDS011;2451;49.970;9.068;2023-01-23T05:58:48;14.13;;;8.02;;
4873;SDS011;2451;49.970;9.068;2023-01-23T06:01:14;12.60;;;7.57;;
4873;SDS011;2451;49.970;9.068;2023-01-23T06:03:39;14.18;;;8.30;;
4873;SDS011;2451;49.970;9.068;2023-01-23T06:06:05;12.80;;;7.78;;
4873;SDS011;2451;49.970;9.068;2023-01-23T06:08:31;11.70;;;7.15;;
4873;SDS011;2451;49.970;9.068;2023-01-23T06:10:57;11.60;;;7.28;;
4873;SDS011;2451;49.970;9.068;2023-01-23T06:13:23;11.95;;;7.22;;
4873;SDS011;2451;49.970;9.068;2023-01-23T06:15:52;11.27;;;7.10;;
4873;SDS011;2451;49.970;9.068;2023-01-23T06:18:18;11.48;;;7.22;;
4873;SDS011;2451;49.970;9.068;2023-01-23T06:20:44;11.23;;;6.90;;
4873;SDS011;2451;49.970;9.068;2023-01-23T06:23:10;11.25;;;6.60;;
4873;SDS011;2451;49.970;9.068;2023-01-23T06:25:36;11.85;;;6.50;;
4873;SDS011;2451;49.970;9.068;2023-01-23T06:28:02;9.50;;;6.03;;
4873;SDS011;2451;49.970;9.068;2023-01-23T06:30:28;10.75;;;5.97;;
4873;SDS011;2451;49.970;9.068;2023-01-23T06:32:53;8.75;;;5.80;;
4873;SDS011;2451;49.970;9.068;2023-01-23T06:35:19;9.10;;;6.03;;
4873;SDS011;2451;49.970;9.068;2023-01-23T06:37:44;10.57;;;5.88;;
4873;SDS011;2451;49.970;9.068;2023-01-23T06:40:10;10.05;;;6.55;;
4873;SDS011;2451;49.970;9.068;2023-01-23T06:42:39;10.43;;;6.00;;
4873;SDS011;2451;49.970;9.068;2023-01-23T06:45:06;9.45;;;5.68;;
4873;SDS011;2451;49.970;9.068;2023-01-23T06:47:32;9.30;;;5.40;;
4873;SDS011;2451;49.970;9.068;2023-01-23T06:49:58;12.25;;;5.10;;
4873;SDS011;2451;49.970;9.068;2023-01-23T06:52:26;10.85;;;5.80;;
4873;SDS011;2451;49.970;9.068;2023-01-23T06:54:51;10.68;;;5.20;;
4873;SDS011;2451;49.970;9.068;2023-01-23T06:57:17;8.55;;;5.13;;
4873;SDS011;2451;49.970;9.068;2023-01-23T06:59:42;9.20;;;6.03;;
4873;SDS011;2451;49.970;9.068;2023-01-23T07:02:09;12.18;;;5.85;;
4873;SDS011;2451;49.970;9.068;2023-01-23T07:04:36;9.95;;;5.60;;
4873;SDS011;2451;49.970;9.068;2023-01-23T07:07:01;9.50;;;5.65;;
4873;SDS011;2451;49.970;9.068;2023-01-23T07:09:27;10.88;;;5.93;;
4873;SDS011;2451;49.970;9.068;2023-01-23T07:11:53;10.07;;;5.60;;
4873;SDS011;2451;49.970;9.068;2023-01-23T07:14:19;9.93;;;5.45;;
4873;SDS011;2451;49.970;9.068;2023-01-23T07:16:44;10.95;;;6.20;;
4873;SDS011;2451;49.970;9.068;2023-01-23T07:19:10;11.00;;;6.18;;
4873;SDS011;2451;49.970;9.068;2023-01-23T07:21:35;9.68;;;5.78;;
4873;SDS011;2451;49.970;9.068;2023-01-23T07:24:01;10.00;;;5.80;;
4873;SDS011;2451;49.970;9.068;2023-01-23T07:26:26;10.23;;;5.97;;
4873;SDS011;2451;49.970;9.068;2023-01-23T07:28:52;9.95;;;5.90;;
4873;SDS011;2451;49.970;9.068;2023-01-23T07:31:18;8.48;;;5.38;;
4873;SDS011;2451;49.970;9.068;2023-01-23T07:33:43;9.40;;;5.28;;
4873;SDS011;2451;49.970;9.068;2023-01-23T07:36:09;9.52;;;5.70;;
4873;SDS011;2451;49.970;9.068;2023-01-23T07:38:37;11.02;;;5.70;;
4873;SDS011;2451;49.970;9.068;2023-01-23T07:41:03;10.15;;;6.13;;
4873;SDS011;2451;49.970;9.068;2023-01-23T07:43:29;9.55;;;5.75;;
4873;SDS011;2451;49.970;9.068;2023-01-23T07:45:56;10.02;;;5.80;;
4873;SDS011;2451;49.970;9.068;2023-01-23T07:48:25;10.18;;;5.55;;
4873;SDS011;2451;49.970;9.068;2023-01-23T07:50:51;12.88;;;5.93;;
4873;SDS011;2451;49.970;9.068;2023-01-23T07:53:17;10.90;;;5.70;;
4873;SDS011;2451;49.970;9.068;2023-01-23T07:55:42;9.30;;;5.93;;
4873;SDS011;2451;49.970;9.068;2023-01-23T07:58:08;9.48;;;5.93;;
4873;SDS011;2451;49.970;9.068;2023-01-23T08:00:34;8.77;;;5.40;;
4873;SDS011;2451;49.970;9.068;2023-01-23T08:02:59;9.90;;;6.22;;
4873;SDS011;2451;49.970;9.068;2023-01-23T08:05:25;9.18;;;5.60;;
4873;SDS011;2451;49.970;9.068;2023-01-23T08:07:50;9.35;;;5.63;;
4873;SDS011;2451;49.970;9.068;2023-01-23T08:10:16;9.43;;;5.65;;
4873;SDS011;2451;49.970;9.068;2023-01-23T08:12:42;10.65;;;6.88;;
4873;SDS011;2451;49.970;9.068;2023-01-23T08:15:08;10.85;;;6.93;;
4873;SDS011;2451;49.970;9.068;2023-01-23T08:17:34;11.35;;;7.40;;
4873;SDS011;2451;49.970;9.068;2023-01-23T08:19:59;11.38;;;7.65;;
4873;SDS011;2451;49.970;9.068;2023-01-23T08:22:25;11.68;;;7.30;;
4873;SDS011;2451;49.970;9.068;2023-01-23T08:24:50;13.45;;;8.00;;
4873;SDS011;2451;49.970;9.068;2023-01-23T08:27:16;15.80;;;9.50;;
4873;SDS011;2451;49.970;9.068;2023-01-23T08:29:41;19.13;;;10.85;;
4873;SDS011;2451;49.970;9.068;2023-01-23T08:32:07;14.23;;;7.90;;
4873;SDS011;2451;49.970;9.068;2023-01-23T08:34:32;13.85;;;8.40;;
4873;SDS011;2451;49.970;9.068;2023-01-23T08:36:58;14.05;;;7.20;;
4873;SDS011;2451;49.970;9.068;2023-01-23T08:39:24;11.90;;;7.40;;
4873;SDS011;2451;49.970;9.068;2023-01-23T08:41:49;11.13;;;7.18;;
4873;SDS011;2451;49.970;9.068;2023-01-23T08:44:15;13.85;;;8.27;;
4873;SDS011;2451;49.970;9.068;2023-01-23T08:46:40;11.90;;;6.90;;
4873;SDS011;2451;49.970;9.068;2023-01-23T08:49:07;12.18;;;7.40;;
4873;SDS011;2451;49.970;9.068;2023-01-23T08:51:33;12.27;;;7.18;;
4873;SDS011;2451;49.970;9.068;2023-01-23T08:53:59;9.88;;;6.63;;
4873;SDS011;2451;49.970;9.068;2023-01-23T08:56:24;10.07;;;6.50;;
4873;SDS011;2451;49.970;9.068;2023-01-23T08:58:50;11.05;;;6.78;;
4873;SDS011;2451;49.970;9.068;2023-01-23T09:01:18;12.52;;;7.57;;
4873;SDS011;2451;49.970;9.068;2023-01-23T09:03:45;10.70;;;6.72;;
4873;SDS011;2451;49.970;9.068;2023-01-23T09:06:11;10.15;;;6.57;;
4873;SDS011;2451;49.970;9.068;2023-01-23T09:08:39;11.20;;;6.68;;
4873;SDS011;2451;49.970;9.068;2023-01-23T09:11:06;11.50;;;6.78;;
4873;SDS011;2451;49.970;9.068;2023-01-23T09:13:32;10.00;;;6.38;;
4873;SDS011;2451;49.970;9.068;2023-01-23T09:15:58;10.40;;;5.95;;
4873;SDS011;2451;49.970;9.068;2023-01-23T09:18:24;11.45;;;6.80;;
4873;SDS011;2451;49.970;9.068;2023-01-23T09:20:50;10.15;;;6.68;;
4873;SDS011;2451;49.970;9.068;2023-01-23T09:23:17;10.48;;;6.22;;
4873;SDS011;2451;49.970;9.068;2023-01-23T09:25:43;9.95;;;5.60;;
4873;SDS011;2451;49.970;9.068;2023-01-23T09:28:08;10.23;;;6.63;;
4873;SDS011;2451;49.970;9.068;2023-01-23T09:30:34;11.15;;;6.45;;
4873;SDS011;2451;49.970;9.068;2023-01-23T09:33:00;9.90;;;6.55;;
4873;SDS011;2451;49.970;9.068;2023-01-23T09:35:26;9.48;;;6.07;;
4873;SDS011;2451;49.970;9.068;2023-01-23T09:37:52;9.93;;;5.95;;
4873;SDS011;2451;49.970;9.068;2023-01-23T09:40:24;8.85;;;5.97;;
4873;SDS011;2451;49.970;9.068;2023-01-23T09:43:01;9.10;;;5.45;;
4873;SDS011;2451;49.970;9.068;2023-01-23T09:45:37;9.15;;;6.10;;
4873;SDS011;2451;49.970;9.068;2023-01-23T09:50:50;13.82;;;8.43;;
4873;SDS011;2451;49.970;9.068;2023-01-23T09:53:21;13.75;;;7.82;;
4873;SDS011;2451;49.970;9.068;2023-01-23T09:56:00;9.25;;;6.38;;
4873;SDS011;2451;49.970;9.068;2023-01-23T09:58:36;10.05;;;6.70;;
4873;SDS011;2451;49.970;9.068;2023-01-23T10:01:11;9.35;;;6.13;;
4873;SDS011;2451;49.970;9.068;2023-01-23T10:03:37;9.30;;;5.90;;
4873;SDS011;2451;49.970;9.068;2023-01-23T10:06:06;11.10;;;6.47;;
4873;SDS011;2451;49.970;9.068;2023-01-23T10:20:49;8.73;;;5.65;;
4873;SDS011;2451;49.970;9.068;2023-01-23T10:26:01;9.15;;;5.65;;
4873;SDS011;2451;49.970;9.068;2023-01-23T10:28:34;10.80;;;5.78;;
4873;SDS011;2451;49.970;9.068;2023-01-23T10:36:31;10.40;;;6.57;;
4873;SDS011;2451;49.970;9.068;2023-01-23T10:41:34;9.13;;;5.88;;
4873;SDS011;2451;49.970;9.068;2023-01-23T10:43:59;9.52;;;5.25;;
4873;SDS011;2451;49.970;9.068;2023-01-23T10:46:33;8.82;;;5.35;;
4873;SDS011;2451;49.970;9.068;2023-01-23T10:49:04;8.77;;;5.65;;
4873;SDS011;2451;49.970;9.068;2023-01-23T10:56:59;8.65;;;5.25;;
4873;SDS011;2451;49.970;9.068;2023-01-23T10:59:27;7.63;;;4.90;;
4873;SDS011;2451;49.970;9.068;2023-01-23T11:01:58;7.72;;;5.00;;
4873;SDS011;2451;49.970;9.068;2023-01-23T11:04:28;11.75;;;5.35;;
4873;SDS011;2451;49.970;9.068;2023-01-23T11:07:44;7.68;;;5.22;;
4873;SDS011;2451;49.970;9.068;2023-01-23T11:12:29;8.10;;;5.35;;
4873;SDS011;2451;49.970;9.068;2023-01-23T11:15:12;9.52;;;5.78;;
4873;SDS011;2451;49.970;9.068;2023-01-23T11:17:44;11.50;;;5.90;;
4873;SDS011;2451;49.970;9.068;2023-01-23T11:20:32;9.32;;;5.72;;
4873;SDS011;2451;49.970;9.068;2023-01-23T11:23:16;8.90;;;5.43;;
4873;SDS011;2451;49.970;9.068;2023-01-23T11:25:46;8.45;;;5.72;;
4873;SDS011;2451;49.970;9.068;2023-01-23T11:30:49;9.20;;;5.40;;
4873;SDS011;2451;49.970;9.068;2023-01-23T11:36:19;12.23;;;5.40;;
4873;SDS011;2451;49.970;9.068;2023-01-23T11:39:08;9.55;;;5.75;;
4873;SDS011;2451;49.970;9.068;2023-01-23T11:41:55;12.05;;;6.18;;
4873;SDS011;2451;49.970;9.068;2023-01-23T11:44:21;9.48;;;6.50;;
4873;SDS011;2451;49.970;9.068;2023-01-23T11:58:03;8.18;;;5.55;;
4873;SDS011;2451;49.970;9.068;2023-01-23T12:08:18;7.80;;;4.80;;
4873;SDS011;2451;49.970;9.068;2023-01-23T12:16:41;7.28;;;4.93;;
4873;SDS011;2451;49.970;9.068;2023-01-23T12:22:13;7.55;;;5.00;;
4873;SDS011;2451;49.970;9.068;2023-01-23T12:30:59;10.52;;;7.20;;
4873;SDS011;2451;49.970;9.068;2023-01-23T12:36:15;9.15;;;5.57;;
4873;SDS011;2451;49.970;9.068;2023-01-23T12:41:38;7.97;;;5.47;;
4873;SDS011;2451;49.970;9.068;2023-01-23T12:44:21;7.35;;;4.97;;
4873;SDS011;2451;49.970;9.068;2023-01-23T12:46:58;11.52;;;6.93;;
4873;SDS011;2451;49.970;9.068;2023-01-23T12:49:45;9.35;;;5.97;;
4873;SDS011;2451;49.970;9.068;2023-01-23T12:52:22;7.28;;;5.55;;
4873;SDS011;2451;49.970;9.068;2023-01-23T12:55:23;8.55;;;6.30;;
4873;SDS011;2451;49.970;9.068;2023-01-23T12:57:55;9.15;;;5.95;;
4873;SDS011;2451;49.970;9.068;2023-01-23T13:00:40;8.43;;;5.35;;
4873;SDS011;2451;49.970;9.068;2023-01-23T13:03:28;12.10;;;9.10;;
4873;SDS011;2451;49.970;9.068;2023-01-23T13:06:18;12.30;;;9.00;;
4873;SDS011;2451;49.970;9.068;2023-01-23T13:09:06;9.40;;;5.78;;
4873;SDS011;2451;49.970;9.068;2023-01-23T13:14:45;7.70;;;5.90;;
4873;SDS011;2451;49.970;9.068;2023-01-23T13:17:25;7.60;;;5.25;;
4873;SDS011;2451;49.970;9.068;2023-01-23T13:20:06;7.63;;;5.53;;
4873;SDS011;2451;49.970;9.068;2023-01-23T13:23:20;13.73;;;7.40;;
4873;SDS011;2451;49.970;9.068;2023-01-23T13:25:48;7.38;;;5.13;;
4873;SDS011;2451;49.970;9.068;2023-01-23T13:31:03;7.78;;;5.32;;
4873;SDS011;2451;49.970;9.068;2023-01-23T13:36:11;7.97;;;5.78;;
4873;SDS011;2451;49.970;9.068;2023-01-23T13:39:30;8.07;;;5.15;;
4873;SDS011;2451;49.970;9.068;2023-01-23T13:41:42;7.85;;;4.85;;
4873;SDS011;2451;49.970;9.068;2023-01-23T13:47:07;6.97;;;4.87;;
4873;SDS011;2451;49.970;9.068;2023-01-23T13:50:05;9.75;;;5.30;;
4873;SDS011;2451;49.970;9.068;2023-01-23T13:52:40;8.15;;;4.72;;
4873;SDS011;2451;49.970;9.068;2023-01-23T13:55:32;7.28;;;4.88;;
4873;SDS011;2451;49.970;9.068;2023-01-23T13:58:23;7.82;;;4.88;;
4873;SDS011;2451;49.970;9.068;2023-01-23T14:00:54;7.43;;;4.90;;
4873;SDS011;2451;49.970;9.068;2023-01-23T14:03:57;7.75;;;5.20;;
4873;SDS011;2451;49.970;9.068;2023-01-23T14:06:47;7.45;;;4.75;;
4873;SDS011;2451;49.970;9.068;2023-01-23T14:09:20;6.75;;;4.72;;
4873;SDS011;2451;49.970;9.068;2023-01-23T14:11:57;8.32;;;5.30;;
4873;SDS011;2451;49.970;9.068;2023-01-23T14:14:23;8.63;;;5.28;;
4873;SDS011;2451;49.970;9.068;2023-01-23T14:17:08;7.00;;;4.50;;
4873;SDS011;2451;49.970;9.068;2023-01-23T14:19:36;6.75;;;4.30;;
4873;SDS011;2451;49.970;9.068;2023-01-23T14:22:12;7.00;;;4.72;;
4873;SDS011;2451;49.970;9.068;2023-01-23T14:24:50;6.45;;;3.97;;
4873;SDS011;2451;49.970;9.068;2023-01-23T14:30:00;5.88;;;3.63;;
4873;SDS011;2451;49.970;9.068;2023-01-23T14:32:28;5.82;;;3.80;;
4873;SDS011;2451;49.970;9.068;2023-01-23T14:34:55;6.15;;;3.97;;
4873;SDS011;2451;49.970;9.068;2023-01-23T14:37:21;7.05;;;3.80;;
4873;SDS011;2451;49.970;9.068;2023-01-23T14:39:47;5.22;;;3.67;;
4873;SDS011;2451;49.970;9.068;2023-01-23T14:44:48;8.05;;;3.70;;
4873;SDS011;2451;49.970;9.068;2023-01-23T14:47:15;8.65;;;3.90;;
4873;SDS011;2451;49.970;9.068;2023-01-23T14:49:48;6.90;;;3.67;;
4873;SDS011;2451;49.970;9.068;2023-01-23T14:52:20;7.45;;;3.92;;
4873;SDS011;2451;49.970;9.068;2023-01-23T14:54:48;6.28;;;3.80;;
4873;SDS011;2451;49.970;9.068;2023-01-23T14:57:14;6.38;;;3.88;;
4873;SDS011;2451;49.970;9.068;2023-01-23T14:59:40;9.52;;;4.20;;
4873;SDS011;2451;49.970;9.068;2023-01-23T15:02:24;10.35;;;5.38;;
4873;SDS011;2451;49.970;9.068;2023-01-23T15:10:17;7.18;;;3.97;;
4873;SDS011;2451;49.970;9.068;2023-01-23T15:12:49;10.18;;;4.20;;
4873;SDS011;2451;49.970;9.068;2023-01-23T15:15:21;7.85;;;4.40;;
4873;SDS011;2451;49.970;9.068;2023-01-23T15:17:48;6.32;;;4.28;;
4873;SDS011;2451;49.970;9.068;2023-01-23T15:22:54;8.50;;;4.63;;
4873;SDS011;2451;49.970;9.068;2023-01-23T15:25:29;8.50;;;4.70;;
4873;SDS011;2451;49.970;9.068;2023-01-23T15:27:56;5.13;;;3.75;;
4873;SDS011;2451;49.970;9.068;2023-01-23T15:33:00;6.22;;;4.35;;
4873;SDS011;2451;49.970;9.068;2023-01-23T15:35:32;7.43;;;5.10;;
4873;SDS011;2451;49.970;9.068;2023-01-23T15:37:58;8.82;;;5.32;;
4873;SDS011;2451;49.970;9.068;2023-01-23T15:40:28;9.00;;;5.20;;
4873;SDS011;2451;49.970;9.068;2023-01-23T15:43:09;8.13;;;4.43;;
4873;SDS011;2451;49.970;9.068;2023-01-23T15:45:42;8.20;;;4.90;;
4873;SDS011;2451;49.970;9.068;2023-01-23T15:48:08;9.85;;;6.30;;
4873;SDS011;2451;49.970;9.068;2023-01-23T15:50:33;10.13;;;6.00;;
4873;SDS011;2451;49.970;9.068;2023-01-23T15:52:59;14.45;;;9.07;;
4873;SDS011;2451;49.970;9.068;2023-01-23T15:55:25;16.20;;;9.50;;
4873;SDS011;2451;49.970;9.068;2023-01-23T15:57:52;32.97;;;19.10;;
4873;SDS011;2451;49.970;9.068;2023-01-23T16:00:22;16.85;;;11.10;;
4873;SDS011;2451;49.970;9.068;2023-01-23T16:02:50;15.70;;;10.40;;
4873;SDS011;2451;49.970;9.068;2023-01-23T16:05:20;13.98;;;8.93;;
4873;SDS011;2451;49.970;9.068;2023-01-23T16:07:47;13.32;;;8.82;;
4873;SDS011;2451;49.970;9.068;2023-01-23T16:10:17;16.02;;;10.20;;
4873;SDS011;2451;49.970;9.068;2023-01-23T16:12:52;17.88;;;10.77;;
4873;SDS011;2451;49.970;9.068;2023-01-23T16:15:22;16.70;;;9.40;;
4873;SDS011;2451;49.970;9.068;2023-01-23T16:17:47;11.20;;;7.18;;
4873;SDS011;2451;49.970;9.068;2023-01-23T16:22:40;12.60;;;7.38;;
4873;SDS011;2451;49.970;9.068;2023-01-23T16:25:06;13.05;;;7.35;;
4873;SDS011;2451;49.970;9.068;2023-01-23T16:27:39;11.50;;;7.38;;
4873;SDS011;2451;49.970;9.068;2023-01-23T16:30:04;11.63;;;7.28;;
4873;SDS011;2451;49.970;9.068;2023-01-23T16:32:30;10.90;;;6.70;;
4873;SDS011;2451;49.970;9.068;2023-01-23T16:34:56;11.20;;;6.47;;
4873;SDS011;2451;49.970;9.068;2023-01-23T16:37:21;9.90;;;6.68;;
4873;SDS011;2451;49.970;9.068;2023-01-23T16:39:48;11.05;;;6.97;;
4873;SDS011;2451;49.970;9.068;2023-01-23T16:42:15;9.95;;;6.45;;
4873;SDS011;2451;49.970;9.068;2023-01-23T16:44:43;10.40;;;6.47;;
4873;SDS011;2451;49.970;9.068;2023-01-23T16:47:08;11.20;;;7.25;;
4873;SDS011;2451;49.970;9.068;2023-01-23T16:49:34;10.40;;;6.88;;
4873;SDS011;2451;49.970;9.068;2023-01-23T16:51:59;13.55;;;8.38;;
4873;SDS011;2451;49.970;9.068;2023-01-23T16:54:25;14.80;;;9.40;;
4873;SDS011;2451;49.970;9.068;2023-01-23T16:56:51;19.08;;;9.63;;
4873;SDS011;2451;49.970;9.068;2023-01-23T16:59:20;15.50;;;8.95;;
4873;SDS011;2451;49.970;9.068;2023-01-23T17:01:54;16.55;;;10.95;;
4873;SDS011;2451;49.970;9.068;2023-01-23T17:04:19;15.13;;;9.23;;
4873;SDS011;2451;49.970;9.068;2023-01-23T17:06:45;13.85;;;9.50;;
4873;SDS011;2451;49.970;9.068;2023-01-23T17:09:12;16.13;;;10.48;;
4873;SDS011;2451;49.970;9.068;2023-01-23T17:11:39;14.75;;;10.18;;
4873;SDS011;2451;49.970;9.068;2023-01-23T17:14:08;15.70;;;10.32;;